Weymouth, United Kingdom

10:19 PM BST on August 04, 2015 (GMT +0100)
Weymouth Harborside | | Change Station
CLOSE
Current Station
Personal Weather Station
Location: Weymouth,
Elevation: 23 ft
Nearby Weather Stations

Elev 23 ft 50.61 °N, 2.45 °W | Updated 19 seconds ago

Clear
Clear
60.8 °F
Feels Like 60.8 °F
N
3.0
Wind Variable Wind from SSE
Gusts 3.0 mph

Today
High -- | Low -- °F
--% Chance of Precip.
Yesterday
High -- | Low -- °F
Precip. -- in
5:40 AM 8:50 PM
Waning Gibbous, 74% visible
Pressure 29.98 in
Visibility -9999.0 miles
Clouds
Dew Point 51 °F
Humidity 71%
Rainfall 0.00 in
Snow Depth Not available.
UV Not available.
Pollen Not available.
Air Quality Not available.
Flu Activity Not available.
METAR EGDY 042050Z 21007KT CAVOK 15/10 Q1015 BLU

More Conditions Fewer Conditions

Pressure 29.98 in
Visibility -9999.0 miles
Clouds
Dew Point 51 °F
Humidity 71%
Rainfall 0.00 in
Snow Depth Not available.
UV Not available.
Pollen Not available.
Air Quality Not available.
Flu Activity Not available.
METAR EGDY 042050Z 21007KT CAVOK 15/10 Q1015 BLU

More Conditions Fewer Conditions

10-Day Weather Forecast

×

Almanac

Astronomy

Aug. 04, 2015 Rise Set
Actual Time
Civil Twilight
Nautical Twilight
Astronomical Twilight
Moon
Length of Visible Light
Length of Day
Tomorrow will be .
, % of the Moon is Illuminated

Today's Extremes

Country Highs Country Lows

Community

WunderPhotos

Upload Photos

1,843,986 photos uploaded!

WunderBlogs® & News

Nearby

Air Quality

  Air Quality AQ Index Pollutant
Not available.

Snow Depth

Station Depth Elevation

Earthquake Activity

City Distance Mag. Time & Date
Minimum magnitude displayed is 2.5.

Coastal Water Temperatures

Place Temperature

Stations

Nearby Weather Stations

Station Location Temp. Windchill Dew Point Humidity Wind Precip. Elev Updated Type